createdAt,value
2019-01-11T00:00:08.584Z,8.50
2019-01-11T00:02:41.386Z,7.90
2019-01-11T00:05:12.632Z,10.27
2019-01-11T00:07:43.903Z,9.37
2019-01-11T00:10:16.114Z,8.50
2019-01-11T00:12:47.360Z,11.17
2019-01-11T00:15:18.604Z,9.40
2019-01-11T00:17:49.873Z,10.37
2019-01-11T00:20:21.364Z,8.33
2019-01-11T00:22:52.685Z,8.07
2019-01-11T00:25:23.911Z,8.03
2019-01-11T00:27:55.565Z,7.80
2019-01-11T00:30:26.777Z,7.77
2019-01-11T00:32:58.012Z,7.53
2019-01-11T00:35:29.548Z,9.23
2019-01-11T00:38:00.785Z,6.50
2019-01-11T00:40:32.040Z,7.77
2019-01-11T00:43:03.370Z,8.63
2019-01-11T00:45:34.705Z,9.33
2019-01-11T00:48:05.977Z,7.03
2019-01-11T00:50:37.225Z,7.57
2019-01-11T00:53:08.925Z,9.50
2019-01-11T00:55:40.185Z,6.53
2019-01-11T00:58:11.424Z,8.63
2019-01-11T01:00:42.701Z,10.17
2019-01-11T01:03:13.949Z,6.30
2019-01-11T01:05:45.204Z,6.40
2019-01-11T01:08:16.585Z,7.60
2019-01-11T01:10:47.955Z,11.60
2019-01-11T01:13:19.307Z,8.80
2019-01-11T01:15:50.708Z,7.40
2019-01-11T01:18:22.160Z,7.27
2019-01-11T01:20:53.417Z,7.53
2019-01-11T01:23:24.677Z,8.73
2019-01-11T01:25:56.033Z,7.00
2019-01-11T01:28:27.357Z,10.27
2019-01-11T01:30:58.614Z,8.17
2019-01-11T01:33:29.857Z,6.70
2019-01-11T01:36:01.126Z,6.40
2019-01-11T01:38:32.374Z,7.47
2019-01-11T01:41:03.635Z,7.17
2019-01-11T01:43:34.969Z,7.47
2019-01-11T01:46:06.336Z,8.00
2019-01-11T01:48:37.584Z,8.90
2019-01-11T01:51:08.854Z,12.23
2019-01-11T01:53:40.113Z,6.63
2019-01-11T01:56:11.321Z,8.50
2019-01-11T01:58:42.566Z,7.73
2019-01-11T02:01:13.809Z,8.03
2019-01-11T02:03:45.114Z,7.40
2019-01-11T02:06:16.385Z,7.77
2019-01-11T02:08:47.617Z,6.57
2019-01-11T02:11:18.874Z,6.37
2019-01-11T02:13:50.124Z,6.67
2019-01-11T02:16:21.789Z,6.53
2019-01-11T02:18:53.221Z,6.90
2019-01-11T02:21:24.535Z,7.83
2019-01-11T02:23:55.792Z,5.97
2019-01-11T02:26:27.020Z,5.90
2019-01-11T02:29:01.052Z,7.57
2019-01-11T02:31:32.418Z,7.20
2019-01-11T02:34:03.989Z,7.50
2019-01-11T02:36:35.260Z,7.57
2019-01-11T02:39:08.132Z,8.00
2019-01-11T02:41:39.398Z,10.87
2019-01-11T02:44:10.676Z,7.07
2019-01-11T02:46:41.960Z,6.83
2019-01-11T02:49:13.697Z,7.43
2019-01-11T02:51:44.964Z,9.30
2019-01-11T02:54:16.201Z,8.50
2019-01-11T02:56:47.416Z,8.17
2019-01-11T02:59:18.681Z,8.30
2019-01-11T03:01:49.913Z,7.27
2019-01-11T03:04:21.159Z,7.77
2019-01-11T03:06:52.418Z,7.33
2019-01-11T03:09:23.676Z,6.80
2019-01-11T03:11:55.600Z,7.90
2019-01-11T03:14:26.885Z,9.07
2019-01-11T03:16:58.145Z,8.60
2019-01-11T03:19:29.389Z,7.37
2019-01-11T03:22:00.737Z,7.40
2019-01-11T03:24:31.991Z,6.80
2019-01-11T03:27:03.262Z,7.57
2019-01-11T03:29:34.794Z,7.67
2019-01-11T03:32:06.140Z,8.90
2019-01-11T03:34:44.953Z,9.30
2019-01-11T03:37:16.312Z,6.10
2019-01-11T03:39:47.620Z,5.90
2019-01-11T03:42:18.885Z,6.47
2019-01-11T03:44:50.317Z,12.83
2019-01-11T03:47:21.680Z,7.27
2019-01-11T03:49:54.975Z,10.63
2019-01-11T03:52:26.926Z,7.17
2019-01-11T03:54:58.167Z,6.33
2019-01-11T03:57:29.527Z,7.20
2019-01-11T04:00:00.793Z,8.43
2019-01-11T04:02:32.040Z,8.27
2019-01-11T04:05:03.312Z,8.60
2019-01-11T04:07:34.546Z,7.57
2019-01-11T04:10:07.895Z,8.23
2019-01-11T04:12:39.176Z,10.03
2019-01-11T04:15:11.219Z,8.73
2019-01-11T04:17:42.460Z,9.10
2019-01-11T04:20:16.554Z,10.93
2019-01-11T04:22:53.830Z,9.97
2019-01-11T04:25:29.977Z,10.17
2019-01-11T04:28:04.140Z,9.17
2019-01-11T04:30:35.455Z,9.97
2019-01-11T04:33:06.701Z,8.97
2019-01-11T04:35:37.969Z,11.27
2019-01-11T04:38:09.277Z,11.30
2019-01-11T04:40:40.605Z,11.80
2019-01-11T04:43:11.870Z,12.53
2019-01-11T04:45:43.219Z,12.03
2019-01-11T04:48:14.433Z,12.77
2019-01-11T04:50:45.664Z,12.13
2019-01-11T04:53:16.908Z,17.03
2019-01-11T04:55:48.158Z,15.50
2019-01-11T04:58:19.418Z,11.77
2019-01-11T05:00:50.689Z,14.70
2019-01-11T05:03:21.947Z,13.00
2019-01-11T05:05:53.224Z,12.60
2019-01-11T05:08:24.504Z,10.90
2019-01-11T05:10:55.754Z,15.40
2019-01-11T05:13:37.361Z,14.47
2019-01-11T05:16:08.714Z,13.80
2019-01-11T05:18:39.989Z,12.53
2019-01-11T05:21:11.238Z,12.70
2019-01-11T05:23:42.528Z,14.13
2019-01-11T05:26:13.852Z,14.15
2019-01-11T05:28:45.101Z,14.67
2019-01-11T05:31:19.107Z,16.00
2019-01-11T05:33:50.374Z,17.70
2019-01-11T05:36:21.634Z,15.33
2019-01-11T05:38:52.917Z,15.80
2019-01-11T05:41:24.176Z,16.00
2019-01-11T05:43:55.421Z,15.30
2019-01-11T05:46:26.705Z,28.23
2019-01-11T05:48:57.978Z,15.90
2019-01-11T05:51:29.195Z,19.00
2019-01-11T05:54:00.454Z,18.63
2019-01-11T05:56:32.493Z,20.93
2019-01-11T05:59:08.006Z,15.37
2019-01-11T06:01:39.268Z,17.80
2019-01-11T06:04:29.431Z,14.87
2019-01-11T06:07:28.460Z,18.17
2019-01-11T06:09:59.745Z,18.47
2019-01-11T06:12:31.000Z,23.97
2019-01-11T06:15:02.369Z,18.60
2019-01-11T06:17:33.641Z,18.40
2019-01-11T06:20:06.236Z,19.67
2019-01-11T06:22:37.489Z,22.70
2019-01-11T06:25:08.850Z,23.17
2019-01-11T06:27:40.257Z,22.53
2019-01-11T06:30:13.606Z,18.80
2019-01-11T06:32:45.125Z,18.83
2019-01-11T06:35:16.476Z,18.70
2019-01-11T06:37:47.789Z,16.50
2019-01-11T06:40:19.004Z,23.57
2019-01-11T06:42:50.268Z,21.10
2019-01-11T06:45:21.522Z,23.73
2019-01-11T06:47:53.257Z,23.83
2019-01-11T06:50:24.514Z,29.43
2019-01-11T06:52:55.760Z,24.17
2019-01-11T06:55:27.025Z,26.60
2019-01-11T06:57:58.251Z,24.00
2019-01-11T07:00:29.536Z,21.40
2019-01-11T07:03:00.782Z,23.77
2019-01-11T07:05:32.033Z,29.97
2019-01-11T07:08:03.373Z,33.48
2019-01-11T07:10:34.629Z,26.90
2019-01-11T07:13:06.014Z,31.33
2019-01-11T07:15:37.269Z,26.57
2019-01-11T07:18:08.538Z,27.53
2019-01-11T07:20:42.984Z,26.77
2019-01-11T07:23:12.978Z,31.07
2019-01-11T07:25:44.253Z,42.83
2019-01-11T07:28:15.618Z,30.47
2019-01-11T07:31:04.376Z,36.67
2019-01-11T07:33:35.991Z,31.80
2019-01-11T07:36:33.132Z,33.93
2019-01-11T07:39:13.395Z,33.40
2019-01-11T07:41:44.669Z,36.77
2019-01-11T07:44:15.955Z,37.30
2019-01-11T07:46:47.503Z,33.50
2019-01-11T07:49:23.137Z,35.83
2019-01-11T07:51:51.688Z,38.43
2019-01-11T07:54:22.964Z,36.77
2019-01-11T07:56:55.464Z,37.27
2019-01-11T07:59:26.828Z,39.13
2019-01-11T08:01:58.089Z,63.73
2019-01-11T08:04:29.353Z,55.53
2019-01-11T08:07:00.574Z,43.27
2019-01-11T08:09:31.949Z,50.47
2019-01-11T08:12:04.204Z,41.87
2019-01-11T08:14:35.465Z,38.97
2019-01-11T08:17:06.822Z,48.10
2019-01-11T08:19:38.085Z,37.93
2019-01-11T08:22:11.890Z,43.37
2019-01-11T08:24:46.956Z,47.73
2019-01-11T08:27:18.202Z,50.80
2019-01-11T08:29:49.489Z,49.50
2019-01-11T08:32:20.762Z,44.67
2019-01-11T08:34:52.031Z,52.63
2019-01-11T08:37:23.767Z,37.03
2019-01-11T08:39:55.038Z,44.70
2019-01-11T08:42:26.353Z,43.23
2019-01-11T08:44:59.187Z,47.50
2019-01-11T08:47:30.714Z,49.20
2019-01-11T08:50:02.985Z,58.23
2019-01-11T08:52:34.263Z,47.33
2019-01-11T08:55:06.100Z,42.17
2019-01-11T08:57:37.417Z,40.20
2019-01-11T09:00:10.491Z,54.80
2019-01-11T09:02:41.769Z,37.40
2019-01-11T09:05:14.089Z,41.30
2019-01-11T09:07:45.355Z,34.17
2019-01-11T09:10:22.626Z,37.50
2019-01-11T09:12:49.854Z,38.23
2019-01-11T09:15:21.112Z,36.73
2019-01-11T09:18:09.777Z,34.40
2019-01-11T09:20:41.529Z,42.10
2019-01-11T09:23:12.924Z,38.90
2019-01-11T09:25:44.160Z,39.60
2019-01-11T09:28:15.592Z,40.53
2019-01-11T09:30:46.873Z,37.13
2019-01-11T09:33:20.601Z,49.93
2019-01-11T09:35:50.978Z,34.47
2019-01-11T09:38:23.260Z,41.83
2019-01-11T09:40:54.517Z,35.53
2019-01-11T09:43:27.485Z,42.83
2019-01-11T09:45:59.003Z,34.87
2019-01-11T09:48:30.362Z,34.03
2019-01-11T09:51:03.021Z,43.63
2019-01-11T09:53:34.446Z,40.13
2019-01-11T09:56:05.961Z,33.60
2019-01-11T09:58:37.233Z,35.27
2019-01-11T10:01:08.456Z,37.03
2019-01-11T10:03:39.788Z,34.47
2019-01-11T10:06:11.062Z,34.10
2019-01-11T10:08:42.347Z,35.67
2019-01-11T10:11:14.604Z,34.33
2019-01-11T10:13:46.020Z,39.37
2019-01-11T10:16:17.262Z,32.07
2019-01-11T10:18:48.521Z,30.93
2019-01-11T10:21:23.074Z,39.10
2019-01-11T10:23:52.629Z,34.47
2019-01-11T10:26:24.534Z,28.57
2019-01-11T10:28:55.793Z,24.83
2019-01-11T10:31:27.096Z,29.07
2019-01-11T10:33:58.366Z,31.17
2019-01-11T10:36:29.624Z,28.23
2019-01-11T10:39:00.917Z,31.70
2019-01-11T10:41:33.160Z,32.17
2019-01-11T10:44:05.553Z,31.23
2019-01-11T10:46:38.197Z,34.30
2019-01-11T10:49:09.483Z,34.43
2019-01-11T10:51:40.728Z,30.57
2019-01-11T10:54:20.092Z,29.60
2019-01-11T10:56:51.438Z,28.33
2019-01-11T10:59:22.699Z,29.20
2019-01-11T11:01:55.001Z,34.50
2019-01-11T11:04:26.226Z,29.80
2019-01-11T11:06:57.493Z,29.43
2019-01-11T11:09:28.784Z,30.83
2019-01-11T11:12:00.111Z,28.27
2019-01-11T11:14:31.369Z,26.73
2019-01-11T11:17:02.685Z,26.70
2019-01-11T11:19:33.941Z,32.23
2019-01-11T11:22:05.242Z,24.30
2019-01-11T11:24:36.453Z,29.13
2019-01-11T11:27:07.925Z,26.63
2019-01-11T11:29:39.182Z,34.20
2019-01-11T11:32:12.167Z,36.60
2019-01-11T11:34:46.060Z,34.83
2019-01-11T11:37:18.904Z,26.37
2019-01-11T11:39:51.736Z,27.53
2019-01-11T11:42:23.697Z,31.30
2019-01-11T11:44:54.957Z,28.53
2019-01-11T11:47:26.248Z,32.90
2019-01-11T11:49:57.513Z,30.27
2019-01-11T11:52:28.758Z,37.87
2019-01-11T11:55:00.181Z,28.67
2019-01-11T11:57:31.414Z,26.57
2019-01-11T12:00:02.664Z,27.43
2019-01-11T12:02:33.938Z,34.10
2019-01-11T12:05:06.125Z,32.57
2019-01-11T12:07:37.554Z,32.70
2019-01-11T12:10:10.552Z,37.17
2019-01-11T12:12:41.805Z,29.17
2019-01-11T12:15:14.046Z,29.60
2019-01-11T12:17:45.454Z,29.13
2019-01-11T12:20:21.006Z,26.73
2019-01-11T12:22:52.353Z,28.83
2019-01-11T12:25:23.766Z,28.33
2019-01-11T12:27:55.014Z,27.07
2019-01-11T12:30:26.282Z,24.70
2019-01-11T12:32:57.709Z,25.53
2019-01-11T12:35:28.974Z,28.67
2019-01-11T12:38:00.385Z,27.10
2019-01-11T12:40:31.650Z,28.40
2019-01-11T12:43:03.577Z,28.13
2019-01-11T12:45:34.840Z,28.43
2019-01-11T12:48:06.140Z,28.97
2019-01-11T12:50:37.371Z,28.83
2019-01-11T12:53:08.637Z,26.33
2019-01-11T12:55:41.281Z,28.43
2019-01-11T12:58:12.679Z,25.93
2019-01-11T13:00:43.927Z,28.10
2019-01-11T13:03:16.205Z,24.17
2019-01-11T13:05:47.474Z,26.57
2019-01-11T13:08:18.901Z,27.43
2019-01-11T13:10:50.201Z,28.60
2019-01-11T13:13:21.481Z,23.57
2019-01-11T13:15:53.089Z,28.20
2019-01-11T13:18:24.353Z,29.10
2019-01-11T13:20:55.617Z,52.17
2019-01-11T13:23:26.884Z,43.73
2019-01-11T13:25:59.905Z,39.43
2019-01-11T13:28:31.145Z,47.30
2019-01-11T13:31:02.421Z,97.13
2019-01-11T13:33:33.675Z,178.17
2019-01-11T13:36:11.728Z,118.43
2019-01-11T13:38:43.194Z,50.97
2019-01-11T13:41:14.644Z,36.10
2019-01-11T13:43:46.369Z,33.13
2019-01-11T13:46:17.665Z,26.40
2019-01-11T13:48:48.957Z,36.23
2019-01-11T13:51:20.329Z,32.03
2019-01-11T13:53:51.636Z,30.60
2019-01-11T13:56:22.930Z,31.37
2019-01-11T13:58:54.201Z,29.90
2019-01-11T14:01:25.598Z,37.57
2019-01-11T14:03:56.885Z,30.57
2019-01-11T14:06:28.106Z,30.60
2019-01-11T14:08:59.413Z,24.43
2019-01-11T14:11:30.628Z,24.30
2019-01-11T14:14:01.925Z,25.93
2019-01-11T14:16:33.194Z,24.60
2019-01-11T14:19:04.585Z,25.73
2019-01-11T14:21:35.859Z,26.23
2019-01-11T14:24:07.125Z,29.33
2019-01-11T14:26:41.358Z,32.30
2019-01-11T14:29:12.626Z,27.10
2019-01-11T14:31:44.071Z,26.30
2019-01-11T14:34:15.358Z,29.03
2019-01-11T14:36:47.633Z,28.93
2019-01-11T14:39:18.908Z,30.87
2019-01-11T14:41:50.463Z,31.10
2019-01-11T14:44:21.729Z,34.07
2019-01-11T14:46:53.170Z,33.53
2019-01-11T14:49:24.459Z,33.03
2019-01-11T14:51:55.791Z,31.27
2019-01-11T14:54:27.116Z,36.50
2019-01-11T14:56:58.452Z,43.73
2019-01-11T14:59:29.741Z,35.90
2019-01-11T15:02:00.988Z,36.30
2019-01-11T15:04:32.847Z,41.43
2019-01-11T15:07:04.380Z,36.43
2019-01-11T15:09:35.996Z,37.37
2019-01-11T15:12:07.323Z,42.63
2019-01-11T15:14:38.989Z,33.60
2019-01-11T15:17:10.233Z,39.03
2019-01-11T15:19:41.469Z,37.03
2019-01-11T15:22:12.909Z,39.33
2019-01-11T15:24:44.393Z,43.70
2019-01-11T15:27:16.716Z,42.30
2019-01-11T15:29:47.972Z,45.23
2019-01-11T15:32:19.236Z,37.63
2019-01-11T15:34:50.513Z,40.83
2019-01-11T15:37:21.873Z,40.93
2019-01-11T15:39:54.298Z,40.97
2019-01-11T15:42:26.021Z,41.00
2019-01-11T15:44:57.289Z,42.70
2019-01-11T15:47:28.521Z,44.00
2019-01-11T15:50:00.305Z,43.40
2019-01-11T15:52:33.422Z,56.43
2019-01-11T15:55:05.484Z,60.40
2019-01-11T15:57:42.911Z,55.50
2019-01-11T16:00:18.065Z,60.83
2019-01-11T16:02:49.424Z,61.33
2019-01-11T16:05:20.702Z,41.07
2019-01-11T16:07:51.986Z,48.27
2019-01-11T16:10:23.968Z,48.30
2019-01-11T16:13:32.198Z,41.43
2019-01-11T16:16:24.245Z,46.57
2019-01-11T16:18:57.264Z,64.40
2019-01-11T16:21:30.240Z,74.17
2019-01-11T16:24:01.504Z,96.93
2019-01-11T16:26:32.877Z,35.70
2019-01-11T16:29:04.136Z,29.03
2019-01-11T16:31:37.275Z,32.10
2019-01-11T16:34:09.910Z,27.80
2019-01-11T16:36:41.270Z,26.53
2019-01-11T16:39:12.656Z,30.00
2019-01-11T16:41:43.884Z,29.07
2019-01-11T16:44:15.149Z,26.73
2019-01-11T16:46:46.407Z,28.23
2019-01-11T16:49:18.252Z,27.17
2019-01-11T16:51:49.618Z,29.97
2019-01-11T16:57:10.709Z,62.33
2019-01-11T16:59:42.412Z,26.83
2019-01-11T17:02:13.719Z,37.10
2019-01-11T17:04:44.960Z,22.97
2019-01-11T17:07:17.749Z,29.10
2019-01-11T17:09:49.036Z,28.03
2019-01-11T17:12:20.352Z,28.00
2019-01-11T17:14:51.765Z,29.73
2019-01-11T17:17:23.305Z,30.10
2019-01-11T17:19:55.074Z,28.10
2019-01-11T17:22:26.321Z,38.67
2019-01-11T17:24:57.649Z,28.70
2019-01-11T17:27:28.905Z,30.63
2019-01-11T17:30:02.907Z,31.70
2019-01-11T17:32:34.211Z,27.50
2019-01-11T17:35:05.996Z,27.07
2019-01-11T17:37:37.241Z,26.40
2019-01-11T17:40:09.480Z,27.67
2019-01-11T17:42:40.833Z,40.50
2019-01-11T17:45:13.937Z,29.57
2019-01-11T17:47:45.338Z,28.97
2019-01-11T17:50:18.370Z,37.10
2019-01-11T17:52:49.724Z,28.50
2019-01-11T17:55:21.254Z,37.30
2019-01-11T17:57:52.575Z,42.03
2019-01-11T18:00:23.875Z,30.80
2019-01-11T18:02:55.498Z,27.00
2019-01-11T18:05:26.858Z,27.93
2019-01-11T18:07:59.481Z,31.23
2019-01-11T18:10:31.006Z,33.73
2019-01-11T18:13:03.491Z,36.50
2019-01-11T18:15:34.821Z,35.17
2019-01-11T18:18:06.202Z,35.83
2019-01-11T18:20:37.509Z,41.60
2019-01-11T18:23:10.399Z,39.50
2019-01-11T18:25:41.819Z,34.70
2019-01-11T18:28:13.101Z,44.40
2019-01-11T18:30:45.204Z,44.00
2019-01-11T18:33:16.913Z,37.57
2019-01-11T18:35:48.280Z,42.37
2019-01-11T18:38:19.712Z,41.27
2019-01-11T18:40:51.140Z,33.47
2019-01-11T18:43:22.446Z,34.13
2019-01-11T18:45:53.907Z,33.53
2019-01-11T18:48:25.237Z,35.00
2019-01-11T18:50:56.795Z,37.03
2019-01-11T18:53:28.511Z,31.63
2019-01-11T18:56:05.428Z,33.37
2019-01-11T18:58:32.801Z,35.10
2019-01-11T19:01:04.306Z,31.63
2019-01-11T19:03:35.589Z,31.70
2019-01-11T19:06:07.062Z,35.90
2019-01-11T19:08:39.328Z,32.03
2019-01-11T19:11:10.644Z,30.93
2019-01-11T19:13:41.916Z,32.63
2019-01-11T19:16:13.391Z,32.13
2019-01-11T19:18:47.025Z,32.50
2019-01-11T19:21:18.597Z,34.73
2019-01-11T19:23:50.775Z,36.47
2019-01-11T19:26:23.259Z,29.93
2019-01-11T19:28:54.614Z,33.23
2019-01-11T19:31:26.123Z,27.90
2019-01-11T19:33:57.472Z,21.93
2019-01-11T19:36:28.844Z,24.63
2019-01-11T19:39:00.202Z,24.80
2019-01-11T19:41:31.536Z,21.27
2019-01-11T19:44:03.384Z,22.90
2019-01-11T19:46:34.877Z,21.20
2019-01-11T19:49:07.597Z,23.77
2019-01-11T19:51:38.876Z,24.07
2019-01-11T19:54:10.249Z,37.70
2019-01-11T19:56:41.577Z,24.77
2019-01-11T19:59:13.173Z,25.43
2019-01-11T20:01:44.497Z,28.17
2019-01-11T20:04:16.970Z,25.93
2019-01-11T20:06:50.346Z,28.93
2019-01-11T20:09:21.670Z,28.80
2019-01-11T20:11:53.281Z,26.93
2019-01-11T20:14:24.618Z,28.13
2019-01-11T20:16:56.012Z,26.23
2019-01-11T20:19:27.773Z,27.43
2019-01-11T20:21:59.128Z,27.67
2019-01-11T20:24:31.614Z,25.03
2019-01-11T20:27:02.957Z,25.07
2019-01-11T20:29:34.362Z,26.57
2019-01-11T20:32:05.853Z,25.40
2019-01-11T20:34:37.174Z,26.40
2019-01-11T20:37:26.410Z,24.73
2019-01-11T20:39:57.739Z,26.37
2019-01-11T20:42:29.120Z,23.10
2019-01-11T20:45:00.464Z,30.90
2019-01-11T20:47:31.799Z,27.87
2019-01-11T20:50:03.108Z,29.97
2019-01-11T20:52:34.381Z,27.90
2019-01-11T20:55:07.562Z,25.97
2019-01-11T20:57:39.496Z,24.90
2019-01-11T21:00:31.714Z,25.30
2019-01-11T21:03:04.512Z,26.17
2019-01-11T21:05:37.287Z,25.00
2019-01-11T21:08:09.165Z,26.50
2019-01-11T21:10:40.741Z,29.23
2019-01-11T21:13:14.072Z,23.87
2019-01-11T21:16:00.815Z,28.47
2019-01-11T21:18:33.357Z,27.43
2019-01-11T21:21:09.257Z,31.83
2019-01-11T21:23:49.154Z,27.43
2019-01-11T21:26:25.407Z,29.00
2019-01-11T21:29:03.259Z,25.00
2019-01-11T21:31:39.320Z,29.57
2019-01-11T21:34:18.170Z,30.37
2019-01-11T21:36:55.594Z,31.27
2019-01-11T21:39:48.758Z,32.70
2019-01-11T21:42:21.515Z,31.53
2019-01-11T21:45:11.836Z,25.53
2019-01-11T21:47:59.371Z,32.63
2019-01-11T21:50:39.336Z,33.83
2019-01-11T21:53:24.612Z,31.70
2019-01-11T21:56:08.365Z,36.73
2019-01-11T21:58:44.058Z,42.27
2019-01-11T22:01:18.518Z,39.90
2019-01-11T22:03:57.445Z,35.90
2019-01-11T22:06:41.494Z,36.63
2019-01-11T22:09:21.918Z,32.70
2019-01-11T22:11:56.283Z,33.70
2019-01-11T22:14:36.702Z,34.57
2019-01-11T22:17:16.851Z,31.07
2019-01-11T22:19:50.184Z,32.10
2019-01-11T22:22:33.489Z,30.83
2019-01-11T22:25:07.275Z,31.57
2019-01-11T22:27:48.782Z,22.10
2019-01-11T22:30:30.409Z,29.27
2019-01-11T22:33:09.349Z,30.40
2019-01-11T22:35:43.314Z,31.53
2019-01-11T22:38:25.223Z,28.70
2019-01-11T22:41:01.329Z,35.83
2019-01-11T22:43:48.985Z,36.60
2019-01-11T22:46:25.687Z,34.37
2019-01-11T22:49:02.953Z,32.13
2019-01-11T22:51:40.034Z,36.17
2019-01-11T22:54:19.573Z,29.63
2019-01-11T22:56:56.957Z,32.17
2019-01-11T22:59:30.031Z,40.17
2019-01-11T23:02:29.854Z,37.47
2019-01-11T23:05:12.575Z,43.27
2019-01-11T23:07:55.700Z,44.87
2019-01-11T23:11:10.571Z,41.60
2019-01-11T23:13:45.012Z,40.10
2019-01-11T23:16:34.547Z,34.43
2019-01-11T23:19:09.180Z,39.30
2019-01-11T23:21:46.774Z,37.63
2019-01-11T23:24:19.586Z,33.03
2019-01-11T23:27:01.994Z,34.10
2019-01-11T23:29:38.670Z,44.50
2019-01-11T23:32:16.933Z,38.23
2019-01-11T23:34:54.022Z,35.00
2019-01-11T23:37:29.585Z,39.70
2019-01-11T23:40:03.725Z,45.87
2019-01-11T23:42:43.751Z,45.87
2019-01-11T23:45:19.749Z,34.13
2019-01-11T23:48:01.169Z,40.83
2019-01-11T23:50:32.616Z,40.03
2019-01-11T23:53:03.965Z,37.57
2019-01-11T23:55:36.992Z,43.83
2019-01-11T23:58:08.244Z,39.93
